Aérodrome :
LOGIN :

S'inscrire | Disclaimer

   EN    FR    IT 

 










Légende :    VFR   VFR Marginal   IFR   IFR Intensif   IFR Très Intensif
Visi : 
Plafond : 
>= 8 km
>= 3000ft
5 à 8 km
1000 à 3000 ft
1500m à 5 km
500 à 1000 ft
800 à 1500m
200 à 500 ft
< 800m
< 200 ft
Symboles :   Orages  Brouillard  Fortes neiges  Fortes précipitations  Vent > 20 kt
SIGMETs :   Divers  Orages  Givrage  Turbulence  Onde Orograph.  Cendres Volcan.






- Altitude de l'aérodrome : 233 ft
- Code IATA : REU


LERS - Reus Tarragona

DERNIER METAR :
  • 141830Z 04004KT 010V070 9999 FEW040 21/20 Q1011

METARs EXPIRÉS :
  • 141800Z 07003KT 030V140 9999 FEW012 21/21 Q1011
  • 141730Z 05005KT 020V090 9999 FEW010 21/21 Q1010
  • 141700Z 07005KT 040V100 9999 FEW031 21/21 Q1011
  • 141630Z 06006KT 030V100 9999 FEW031 21/21 Q1011

TAF TAF LERS
Valide du 14 à 15h jusqu'au 15 à 15h UTC


141400Z 1415/1515 12008KT 9999 SCT015 BKN020 TX23/1513Z TN12/1506Z
PROB40
TEMPO 1415/1418 4000 TSRA FEW025CB BKN030
BECMG 1418/1420 VRB03KT
BECMG 1423/1501 30015KT
PROB40
TEMPO 1501/1515 30020G35KT



MET'MAP, la Météo Aéronautique d'un coup d'oeil ! - Copyright ORBIFLY Décembre 2007 - Disclaimer

ORBIFLY MET'MAP TEAM :

Programmation & Développement : Alexandra Zaïnal
Conception & Développement : Baudouin d'Aumeries
Co-Programmation & Développement : Marc-Olivier Méhu
Soutien technique & logistique : Manuel Goepfert

Contact : metmap@orbifly.com




SOURCES & CREDITS :

   NOAA